createdAt,value
2022-12-11T00:01:19.432Z,32.87
2022-12-11T00:03:48.194Z,32.53
2022-12-11T00:06:19.867Z,29.40
2022-12-11T00:08:49.265Z,31.83
2022-12-11T00:11:18.796Z,32.40
2022-12-11T00:13:47.587Z,33.47
2022-12-11T00:16:18.170Z,29.37
2022-12-11T00:18:47.841Z,35.33
2022-12-11T00:21:16.454Z,29.83
2022-12-11T00:23:44.980Z,35.87
2022-12-11T00:26:16.618Z,34.90
2022-12-11T00:28:46.163Z,37.10
2022-12-11T00:31:18.987Z,31.80
2022-12-11T00:33:49.719Z,36.77
2022-12-11T00:36:20.836Z,33.77
2022-12-11T00:38:50.305Z,39.97
2022-12-11T00:41:19.253Z,30.30
2022-12-11T00:43:48.049Z,28.00
2022-12-11T00:46:18.311Z,27.87
2022-12-11T00:48:48.604Z,26.83
2022-12-11T00:51:17.223Z,27.80
2022-12-11T00:53:45.905Z,27.37
2022-12-11T00:56:17.803Z,29.13
2022-12-11T00:58:46.532Z,27.37
2022-12-11T01:01:19.525Z,28.17
2022-12-11T01:03:48.646Z,31.90
2022-12-11T01:06:19.262Z,29.50
2022-12-11T01:08:48.774Z,26.13
2022-12-11T01:11:18.391Z,29.10
2022-12-11T01:13:46.993Z,29.40
2022-12-11T01:16:17.487Z,27.27
2022-12-11T01:18:46.143Z,27.70
2022-12-11T01:21:15.417Z,30.27
2022-12-11T01:23:44.398Z,29.60
2022-12-11T01:26:16.416Z,28.47
2022-12-11T01:28:46.291Z,32.50
2022-12-11T01:31:18.643Z,27.53
2022-12-11T01:33:47.295Z,30.73
2022-12-11T01:36:18.808Z,28.57
2022-12-11T01:38:48.603Z,28.83
2022-12-11T01:41:18.102Z,25.53
2022-12-11T01:44:02.984Z,27.80
2022-12-11T01:46:35.305Z,27.30
2022-12-11T01:49:10.145Z,26.67
2022-12-11T01:51:43.854Z,31.27
2022-12-11T01:54:18.444Z,28.23
2022-12-11T01:56:51.127Z,26.90
2022-12-11T01:59:25.608Z,26.73
2022-12-11T02:02:03.757Z,27.20
2022-12-11T02:04:34.321Z,27.50
2022-12-11T02:07:03.614Z,28.13
2022-12-11T02:09:36.283Z,27.83
2022-12-11T02:12:16.873Z,28.63
2022-12-11T02:14:56.504Z,30.93
2022-12-11T02:17:36.704Z,28.53
2022-12-11T02:20:16.155Z,27.30
2022-12-11T02:23:21.291Z,28.80
2022-12-11T02:26:04.274Z,26.33
2022-12-11T02:28:39.834Z,30.23
2022-12-11T02:31:17.217Z,31.60
2022-12-11T02:33:53.935Z,33.17
2022-12-11T02:36:29.224Z,34.87
2022-12-11T02:39:02.672Z,34.53
2022-12-11T02:41:34.853Z,31.90
2022-12-11T02:44:06.230Z,32.07
2022-12-11T02:46:37.779Z,33.83
2022-12-11T02:49:10.436Z,32.87
2022-12-11T02:51:42.861Z,31.60
2022-12-11T02:54:17.719Z,31.20
2022-12-11T02:56:52.254Z,33.37
2022-12-11T02:59:31.666Z,33.70
2022-12-11T03:02:00.485Z,29.47
2022-12-11T03:04:30.061Z,32.43
2022-12-11T03:07:11.977Z,30.20
2022-12-11T03:09:41.053Z,28.37
2022-12-11T03:12:15.256Z,31.30
2022-12-11T03:14:46.366Z,26.97
2022-12-11T03:17:20.253Z,27.33
2022-12-11T03:20:01.403Z,26.13
2022-12-11T03:22:38.871Z,27.63
2022-12-11T03:25:11.828Z,25.87
2022-12-11T03:27:51.756Z,27.13
2022-12-11T03:30:26.961Z,30.23
2022-12-11T03:33:03.511Z,28.80
2022-12-11T03:35:39.324Z,29.83
2022-12-11T03:38:15.083Z,32.43
2022-12-11T03:40:48.959Z,30.70
2022-12-11T03:43:19.082Z,29.40
2022-12-11T03:45:53.099Z,30.77
2022-12-11T03:48:26.536Z,30.63
2022-12-11T03:50:56.258Z,28.43
2022-12-11T03:53:27.852Z,29.40
2022-12-11T03:56:00.105Z,30.23
2022-12-11T03:58:28.515Z,29.50
2022-12-11T04:00:58.239Z,27.40
2022-12-11T04:03:26.664Z,27.33
2022-12-11T04:05:57.920Z,25.03
2022-12-11T04:08:26.271Z,24.37
2022-12-11T04:11:15.061Z,31.87
2022-12-11T04:13:43.832Z,24.80
2022-12-11T04:16:12.674Z,27.20
2022-12-11T04:18:58.672Z,28.87
2022-12-11T04:21:44.640Z,31.07
2022-12-11T04:24:18.842Z,32.83
2022-12-11T04:26:48.631Z,35.40
2022-12-11T04:29:17.267Z,39.80
2022-12-11T04:31:47.352Z,37.83
2022-12-11T04:34:15.643Z,41.77
2022-12-11T04:36:44.700Z,39.33
2022-12-11T04:39:13.153Z,40.90
2022-12-11T04:41:42.023Z,36.47
2022-12-11T04:44:10.749Z,41.73
2022-12-11T04:46:39.395Z,40.23
2022-12-11T04:49:10.060Z,39.00
2022-12-11T04:51:38.341Z,38.47
2022-12-11T04:54:06.965Z,42.37
2022-12-11T04:56:35.237Z,40.07
2022-12-11T04:59:03.540Z,39.43
2022-12-11T05:01:32.027Z,38.93
2022-12-11T05:04:01.137Z,37.73
2022-12-11T05:06:30.711Z,37.87
2022-12-11T05:08:59.008Z,40.23
2022-12-11T05:11:28.103Z,40.23
2022-12-11T05:13:56.461Z,40.07
2022-12-11T05:16:24.763Z,38.43
2022-12-11T05:18:53.153Z,39.40
2022-12-11T05:21:21.412Z,37.63
2022-12-11T05:23:51.102Z,39.33
2022-12-11T05:26:21.804Z,40.37
2022-12-11T05:28:54.588Z,37.97
2022-12-11T05:31:25.248Z,38.47
2022-12-11T05:33:55.209Z,36.67
2022-12-11T05:36:26.274Z,35.43
2022-12-11T05:38:56.893Z,39.83
2022-12-11T05:41:28.547Z,42.50
2022-12-11T05:43:57.411Z,37.37
2022-12-11T05:46:28.171Z,37.97
2022-12-11T05:49:01.438Z,37.17
2022-12-11T05:51:31.316Z,42.17
2022-12-11T05:54:01.694Z,39.33
2022-12-11T05:56:32.720Z,38.50
2022-12-11T05:59:03.028Z,35.50
2022-12-11T06:01:34.829Z,37.27
2022-12-11T06:04:04.337Z,36.17
2022-12-11T06:06:33.955Z,35.13
2022-12-11T06:09:06.313Z,36.83
2022-12-11T06:11:35.930Z,37.87
2022-12-11T06:14:05.281Z,34.90
2022-12-11T06:16:34.254Z,34.87
2022-12-11T06:19:02.994Z,34.97
2022-12-11T06:21:33.846Z,38.67
2022-12-11T06:24:05.670Z,38.23
2022-12-11T06:26:34.195Z,36.23
2022-12-11T06:29:05.285Z,36.00
2022-12-11T06:31:37.293Z,41.47
2022-12-11T06:34:06.011Z,37.60
2022-12-11T06:36:34.640Z,36.07
2022-12-11T06:39:05.211Z,36.93
2022-12-11T06:41:33.562Z,36.73
2022-12-11T06:44:02.331Z,35.80
2022-12-11T06:46:30.697Z,38.60
2022-12-11T06:48:59.010Z,35.83
2022-12-11T06:51:27.304Z,33.73
2022-12-11T06:53:57.824Z,37.40
2022-12-11T06:56:27.535Z,35.57
2022-12-11T06:58:57.133Z,39.60
2022-12-11T07:01:28.257Z,38.27
2022-12-11T07:03:58.902Z,38.60
2022-12-11T07:06:29.430Z,36.33
2022-12-11T07:08:58.272Z,39.30
2022-12-11T07:11:28.074Z,36.90
2022-12-11T07:14:00.043Z,38.57
2022-12-11T07:16:29.010Z,38.37
2022-12-11T07:18:57.681Z,39.60
2022-12-11T07:21:25.978Z,34.53
2022-12-11T07:23:54.380Z,37.70
2022-12-11T07:26:23.524Z,38.23
2022-12-11T07:28:53.275Z,34.87
2022-12-11T07:31:25.582Z,32.67
2022-12-11T07:33:55.809Z,36.03
2022-12-11T07:36:25.019Z,37.17
2022-12-11T07:38:53.863Z,39.93
2022-12-11T07:41:23.156Z,44.47
2022-12-11T07:43:57.241Z,39.80
2022-12-11T07:46:29.188Z,38.40
2022-12-11T07:48:57.866Z,36.13
2022-12-11T07:51:28.671Z,35.80
2022-12-11T07:54:01.996Z,39.97
2022-12-11T07:56:32.055Z,38.20
2022-12-11T07:59:03.205Z,35.57
2022-12-11T08:01:35.632Z,40.73
2022-12-11T08:04:05.728Z,35.70
2022-12-11T08:06:37.173Z,37.30
2022-12-11T08:09:09.251Z,38.30
2022-12-11T08:11:38.228Z,30.53
2022-12-11T08:14:09.226Z,30.60
2022-12-11T08:16:38.899Z,29.83
2022-12-11T08:19:07.270Z,33.93
2022-12-11T08:21:35.583Z,36.67
2022-12-11T08:24:04.724Z,37.90
2022-12-11T08:26:34.058Z,33.37
2022-12-11T08:29:03.287Z,38.77
2022-12-11T08:31:33.184Z,33.30
2022-12-11T08:34:01.913Z,36.43
2022-12-11T08:36:30.565Z,39.83
2022-12-11T08:38:59.477Z,33.90
2022-12-11T08:41:30.712Z,34.03
2022-12-11T08:44:01.700Z,32.13
2022-12-11T08:46:33.699Z,34.03
2022-12-11T08:49:02.082Z,32.93
2022-12-11T08:51:32.060Z,35.60
2022-12-11T08:54:02.527Z,28.43
2022-12-11T08:56:31.451Z,34.50
2022-12-11T08:59:01.925Z,31.80
2022-12-11T09:01:32.753Z,31.03
2022-12-11T09:04:01.096Z,30.03
2022-12-11T09:06:31.272Z,36.47
2022-12-11T09:09:02.431Z,34.50
2022-12-11T09:11:34.607Z,26.80
2022-12-11T09:14:07.566Z,27.73
2022-12-11T09:16:41.231Z,28.60
2022-12-11T09:19:13.945Z,33.80
2022-12-11T09:21:43.918Z,29.50
2022-12-11T09:24:15.140Z,24.63
2022-12-11T09:26:43.797Z,28.37
2022-12-11T09:29:13.422Z,25.93
2022-12-11T09:31:43.638Z,24.80
2022-12-11T09:34:14.981Z,24.93
2022-12-11T09:36:45.290Z,28.40
2022-12-11T09:39:17.359Z,25.03
2022-12-11T09:41:57.310Z,21.83
2022-12-11T09:44:42.235Z,21.50
2022-12-11T09:47:24.170Z,23.97
2022-12-11T09:50:03.741Z,28.17
2022-12-11T09:52:38.917Z,24.00
2022-12-11T09:55:17.711Z,24.30
2022-12-11T09:58:02.639Z,20.27
2022-12-11T10:00:40.450Z,19.27
2022-12-11T10:03:50.421Z,20.80
2022-12-11T10:06:26.053Z,21.50
2022-12-11T10:09:11.537Z,25.57
2022-12-11T10:12:06.292Z,19.83
2022-12-11T10:14:53.592Z,17.83
2022-12-11T10:17:28.628Z,18.50
2022-12-11T10:20:05.330Z,19.40
2022-12-11T10:22:35.814Z,15.87
2022-12-11T10:25:23.405Z,19.77
2022-12-11T10:27:51.984Z,17.50
2022-12-11T10:30:28.416Z,18.83
2022-12-11T10:33:15.878Z,19.10
2022-12-11T10:35:51.206Z,18.80
2022-12-11T10:38:26.420Z,18.00
2022-12-11T10:40:59.831Z,21.73
2022-12-11T10:43:36.652Z,20.17
2022-12-11T10:46:07.154Z,17.37
2022-12-11T10:48:35.580Z,18.80
2022-12-11T10:51:08.122Z,19.97
2022-12-11T10:53:37.241Z,18.07
2022-12-11T10:56:06.210Z,21.83
2022-12-11T10:58:41.317Z,21.27
2022-12-11T11:01:16.155Z,18.53
2022-12-11T11:03:58.195Z,20.20
2022-12-11T11:06:28.994Z,20.13
2022-12-11T11:09:00.482Z,19.83
2022-12-11T11:11:33.968Z,18.20
2022-12-11T11:14:16.376Z,19.77
2022-12-11T11:16:48.623Z,19.20
2022-12-11T11:19:23.714Z,19.37
2022-12-11T11:21:57.503Z,15.80
2022-12-11T11:24:31.961Z,21.33
2022-12-11T11:27:16.484Z,24.97
2022-12-11T11:29:50.276Z,20.63
2022-12-11T11:32:27.909Z,20.27
2022-12-11T11:35:18.433Z,16.73
2022-12-11T11:37:58.896Z,22.40
2022-12-11T11:40:30.838Z,19.03
2022-12-11T11:43:18.294Z,19.83
2022-12-11T11:45:56.625Z,19.50
2022-12-11T11:48:46.904Z,20.80
2022-12-11T11:51:34.584Z,20.97
2022-12-11T11:54:22.720Z,19.80
2022-12-11T11:56:54.988Z,22.40
2022-12-11T11:59:33.007Z,35.37
2022-12-11T12:02:01.781Z,29.23
2022-12-11T12:04:36.891Z,27.93
2022-12-11T12:07:23.290Z,20.77
2022-12-11T12:10:09.612Z,22.20
2022-12-11T12:12:50.466Z,26.47
2022-12-11T12:15:39.925Z,26.07
2022-12-11T12:18:18.623Z,21.83
2022-12-11T12:20:56.687Z,22.83
2022-12-11T12:23:45.939Z,22.40
2022-12-11T12:26:26.975Z,19.53
2022-12-11T12:29:14.665Z,23.23
2022-12-11T12:32:02.165Z,19.60
2022-12-11T12:34:49.906Z,21.50
2022-12-11T12:37:38.091Z,27.30
2022-12-11T12:40:21.875Z,25.70
2022-12-11T12:43:05.640Z,24.23
2022-12-11T12:45:47.087Z,27.13
2022-12-11T12:48:15.410Z,22.97
2022-12-11T12:50:48.768Z,22.07
2022-12-11T12:53:21.729Z,19.23
2022-12-11T12:55:51.809Z,15.77
2022-12-11T12:58:41.074Z,17.27
2022-12-11T13:01:18.078Z,17.90
2022-12-11T13:03:59.117Z,17.17
2022-12-11T13:06:38.913Z,16.70
2022-12-11T13:09:22.680Z,18.97
2022-12-11T13:11:57.713Z,19.47
2022-12-11T13:14:34.220Z,20.23
2022-12-11T13:17:28.395Z,19.47
2022-12-11T13:20:17.962Z,24.60
2022-12-11T13:22:57.959Z,25.63
2022-12-11T13:25:30.796Z,21.90
2022-12-11T13:28:20.727Z,23.20
2022-12-11T13:31:29.119Z,25.20
2022-12-11T13:34:03.925Z,22.50
2022-12-11T13:36:35.474Z,21.73
2022-12-11T13:39:06.802Z,19.13
2022-12-11T13:41:39.205Z,17.70
2022-12-11T13:44:09.309Z,19.63
2022-12-11T13:46:40.961Z,16.00
2022-12-11T13:49:23.993Z,16.80
2022-12-11T13:51:58.834Z,16.83
2022-12-11T13:54:29.683Z,14.17
2022-12-11T13:57:03.803Z,12.47
2022-12-11T13:59:35.347Z,13.63
2022-12-11T14:02:19.197Z,16.00
2022-12-11T14:04:52.248Z,14.17
2022-12-11T14:07:27.897Z,17.90
2022-12-11T14:10:02.902Z,15.33
2022-12-11T14:12:34.288Z,14.93
2022-12-11T14:15:06.157Z,14.33
2022-12-11T14:17:37.483Z,15.23
2022-12-11T14:20:15.818Z,15.07
2022-12-11T14:22:44.557Z,13.60
2022-12-11T14:25:23.923Z,16.40
2022-12-11T14:27:54.748Z,14.23
2022-12-11T14:30:26.623Z,17.07
2022-12-11T14:33:00.976Z,16.63
2022-12-11T14:35:38.665Z,18.30
2022-12-11T14:38:21.293Z,18.47
2022-12-11T14:40:56.178Z,19.50
2022-12-11T14:43:34.598Z,16.77
2022-12-11T14:46:10.067Z,18.47
2022-12-11T14:48:49.672Z,21.63
2022-12-11T14:51:20.859Z,18.10
2022-12-11T14:53:53.555Z,22.77
2022-12-11T14:56:26.218Z,21.60
2022-12-11T14:58:58.134Z,21.80
2022-12-11T15:01:30.595Z,20.20
2022-12-11T15:04:23.379Z,23.53
2022-12-11T15:06:53.555Z,21.13
2022-12-11T15:09:26.531Z,20.90
2022-12-11T15:11:58.371Z,25.40
2022-12-11T15:14:27.870Z,23.67
2022-12-11T15:16:58.639Z,20.47
2022-12-11T15:19:34.239Z,21.00
2022-12-11T15:22:05.685Z,20.23
2022-12-11T15:24:41.737Z,20.87
2022-12-11T15:27:26.855Z,20.83
2022-12-11T15:29:56.807Z,22.07
2022-12-11T15:32:26.258Z,19.40
2022-12-11T15:34:58.354Z,23.50
2022-12-11T15:37:29.305Z,19.87
2022-12-11T15:40:00.011Z,21.27
2022-12-11T15:42:32.606Z,19.37
2022-12-11T15:45:01.874Z,23.67
2022-12-11T15:47:32.463Z,22.43
2022-12-11T15:50:09.511Z,24.77
2022-12-11T15:52:38.228Z,25.03
2022-12-11T15:55:08.055Z,25.93
2022-12-11T15:57:37.393Z,26.07
2022-12-11T16:00:07.588Z,25.83
2022-12-11T16:02:36.313Z,32.27
2022-12-11T16:05:06.785Z,23.17
2022-12-11T16:07:35.687Z,24.07
2022-12-11T16:10:04.150Z,32.67
2022-12-11T16:12:32.604Z,21.73
2022-12-11T16:15:01.337Z,26.63
2022-12-11T16:17:31.413Z,23.83
2022-12-11T16:20:00.030Z,16.13
2022-12-11T16:22:29.859Z,26.40
2022-12-11T16:24:58.228Z,22.07
2022-12-11T16:27:27.170Z,22.37
2022-12-11T16:29:55.861Z,27.27
2022-12-11T16:32:24.552Z,29.10
2022-12-11T16:34:54.081Z,30.70
2022-12-11T16:37:22.982Z,33.00
2022-12-11T16:39:52.722Z,33.40
2022-12-11T16:42:21.356Z,38.20
2022-12-11T16:44:50.003Z,38.63
2022-12-11T16:47:18.604Z,37.67
2022-12-11T16:49:46.888Z,38.23
2022-12-11T16:52:20.538Z,32.87
2022-12-11T16:54:52.166Z,37.67
2022-12-11T16:57:21.701Z,29.03
2022-12-11T16:59:50.310Z,26.50
2022-12-11T17:02:19.358Z,32.67
2022-12-11T17:04:53.688Z,27.30
2022-12-11T17:07:22.663Z,32.23
2022-12-11T17:09:52.345Z,38.77
2022-12-11T17:12:25.861Z,32.90
2022-12-11T17:14:55.009Z,30.50
2022-12-11T17:17:23.834Z,39.00
2022-12-11T17:19:52.228Z,34.90
2022-12-11T17:22:21.266Z,34.13
2022-12-11T17:24:49.674Z,32.93
2022-12-11T17:27:19.412Z,34.23
2022-12-11T17:29:49.491Z,29.83
2022-12-11T17:32:18.846Z,30.50
2022-12-11T17:34:49.155Z,28.83
2022-12-11T17:37:18.347Z,24.40
2022-12-11T17:39:47.537Z,19.63
2022-12-11T17:42:16.633Z,27.90
2022-12-11T17:44:46.548Z,27.70
2022-12-11T17:47:15.993Z,29.10
2022-12-11T17:49:44.430Z,29.47
2022-12-11T17:52:12.710Z,25.03
2022-12-11T17:54:42.165Z,32.20
2022-12-11T17:57:10.487Z,22.47
2022-12-11T17:59:39.195Z,22.40
2022-12-11T18:02:10.514Z,21.87
2022-12-11T18:04:39.560Z,24.90
2022-12-11T18:07:08.250Z,30.80
2022-12-11T18:09:36.860Z,25.47
2022-12-11T18:12:05.954Z,22.87
2022-12-11T18:14:34.695Z,24.53
2022-12-11T18:17:03.586Z,25.63
2022-12-11T18:19:33.647Z,18.97
2022-12-11T18:22:02.296Z,28.00
2022-12-11T18:24:32.638Z,31.87
2022-12-11T18:27:02.626Z,27.13
2022-12-11T18:29:31.008Z,28.63
2022-12-11T18:31:59.880Z,21.13
2022-12-11T18:34:28.546Z,27.37
2022-12-11T18:36:58.386Z,24.00
2022-12-11T18:39:27.264Z,22.07
2022-12-11T18:42:30.571Z,23.90
2022-12-11T18:44:45.522Z,20.20
2022-12-11T18:47:14.211Z,25.83
2022-12-11T18:49:42.914Z,23.67
2022-12-11T18:52:12.960Z,19.17
2022-12-11T18:54:41.963Z,22.87
2022-12-11T18:57:10.632Z,22.60
2022-12-11T18:59:40.928Z,20.53
2022-12-11T19:02:11.460Z,18.53
2022-12-11T19:04:39.897Z,18.77
2022-12-11T19:07:08.625Z,20.43
2022-12-11T19:09:40.612Z,17.03
2022-12-11T19:12:12.220Z,21.90
2022-12-11T19:14:41.517Z,19.93
2022-12-11T19:17:10.276Z,21.20
2022-12-11T19:19:39.553Z,18.03
2022-12-11T19:22:10.542Z,18.13
2022-12-11T19:24:41.980Z,19.77
2022-12-11T19:27:13.666Z,23.60
2022-12-11T19:29:42.740Z,20.70
2022-12-11T19:32:11.992Z,23.33
2022-12-11T19:34:41.282Z,20.37
2022-12-11T19:37:09.595Z,25.37
2022-12-11T19:39:41.988Z,27.83
2022-12-11T19:42:10.386Z,26.90
2022-12-11T19:44:39.044Z,34.30
2022-12-11T19:47:07.584Z,28.77
2022-12-11T19:49:36.312Z,27.77
2022-12-11T19:52:05.486Z,27.00
2022-12-11T19:54:34.415Z,27.93
2022-12-11T19:57:04.219Z,26.07
2022-12-11T19:59:33.320Z,22.90
2022-12-11T20:02:04.155Z,24.93
2022-12-11T20:04:32.838Z,23.43
2022-12-11T20:07:01.345Z,23.27
2022-12-11T20:09:30.219Z,21.27
2022-12-11T20:11:58.502Z,21.10
2022-12-11T20:14:29.192Z,22.60
2022-12-11T20:17:14.745Z,34.63
2022-12-11T20:19:44.005Z,37.63
2022-12-11T20:22:12.844Z,26.37
2022-12-11T20:24:42.723Z,24.03
2022-12-11T20:27:12.454Z,23.90
2022-12-11T20:29:42.912Z,22.57
2022-12-11T20:32:12.415Z,23.87
2022-12-11T20:34:41.313Z,26.33
2022-12-11T20:37:10.223Z,23.20
2022-12-11T20:39:38.872Z,19.93
2022-12-11T20:42:09.630Z,23.70
2022-12-11T20:44:38.334Z,23.00
2022-12-11T20:47:08.641Z,23.47
2022-12-11T20:49:37.713Z,21.93
2022-12-11T20:52:06.590Z,21.43
2022-12-11T20:54:35.631Z,21.43
2022-12-11T20:57:05.181Z,23.47
2022-12-11T20:59:33.770Z,20.77
2022-12-11T21:02:02.648Z,22.70
2022-12-11T21:04:32.856Z,26.37
2022-12-11T21:07:02.076Z,26.93
2022-12-11T21:09:30.821Z,26.70
2022-12-11T21:12:00.917Z,29.13
2022-12-11T21:14:30.593Z,30.37
2022-12-11T21:17:00.086Z,34.70
2022-12-11T21:19:29.181Z,28.70
2022-12-11T21:21:59.523Z,29.00
2022-12-11T21:24:30.427Z,27.67
2022-12-11T21:26:59.776Z,28.87
2022-12-11T21:29:39.340Z,27.07
2022-12-11T21:32:08.435Z,33.87
2022-12-11T21:34:37.832Z,37.50
2022-12-11T21:37:08.118Z,39.00
2022-12-11T21:39:39.519Z,35.23
2022-12-11T21:42:08.762Z,42.70
2022-12-11T21:47:27.666Z,33.93
2022-12-11T21:49:56.136Z,35.30
2022-12-11T21:52:27.195Z,35.90
2022-12-11T21:54:56.600Z,32.40
2022-12-11T21:57:26.798Z,40.87
2022-12-11T21:59:55.530Z,39.17
2022-12-11T22:02:24.406Z,39.20
2022-12-11T22:04:53.115Z,38.63
2022-12-11T22:07:21.557Z,45.60
2022-12-11T22:09:51.358Z,53.37
2022-12-11T22:12:25.714Z,40.90
2022-12-11T22:14:55.246Z,35.73
2022-12-11T22:17:24.195Z,38.10
2022-12-11T22:19:52.799Z,35.03
2022-12-11T22:22:21.556Z,33.17
2022-12-11T22:24:51.497Z,34.47
2022-12-11T22:27:23.709Z,33.13
2022-12-11T22:29:52.593Z,32.93
2022-12-11T22:32:21.031Z,38.30
2022-12-11T22:34:49.395Z,36.77
2022-12-11T22:37:17.853Z,35.40
2022-12-11T22:39:46.497Z,36.03
2022-12-11T22:42:16.239Z,39.30
2022-12-11T22:44:44.963Z,38.27
2022-12-11T22:47:14.101Z,38.33
2022-12-11T22:49:42.755Z,33.83
2022-12-11T22:52:11.430Z,33.63
2022-12-11T22:54:40.423Z,36.33
2022-12-11T22:57:09.302Z,35.60
2022-12-11T22:59:39.476Z,30.47
2022-12-11T23:02:08.420Z,34.73
2022-12-11T23:04:36.978Z,32.33
2022-12-11T23:07:06.008Z,38.93
2022-12-11T23:09:35.116Z,35.23
2022-12-11T23:12:03.828Z,36.83
2022-12-11T23:14:32.559Z,37.50
2022-12-11T23:17:02.336Z,35.10
2022-12-11T23:19:30.765Z,35.47
2022-12-11T23:21:59.088Z,37.13
2022-12-11T23:24:27.952Z,34.40
2022-12-11T23:26:56.262Z,42.17
2022-12-11T23:29:25.160Z,34.37
2022-12-11T23:31:53.492Z,34.13
2022-12-11T23:34:23.391Z,37.67
2022-12-11T23:36:52.185Z,37.50
2022-12-11T23:39:20.854Z,40.50
2022-12-11T23:41:49.512Z,39.07
2022-12-11T23:44:17.845Z,36.90
2022-12-11T23:46:46.583Z,37.80
2022-12-11T23:49:14.919Z,41.20
2022-12-11T23:51:44.718Z,40.87
2022-12-11T23:54:13.421Z,37.70
2022-12-11T23:56:41.804Z,39.00
2022-12-11T23:59:13.598Z,37.07
